sensor_id;sensor_type;location;lat;lon;timestamp;pressure;altitude;pressure_sealevel;temperature;humidity
62680;BME280;68213;40.528;44.712;2023-03-01T00:00:38;80866.78;;;-1.21;52.52
62680;BME280;68213;40.528;44.712;2023-03-01T00:01:39;80874.53;;;-1.21;53.04
62680;BME280;68213;40.528;44.712;2023-03-01T00:02:40;80868.19;;;-1.20;52.59
62680;BME280;68213;40.528;44.712;2023-03-01T00:03:42;80867.00;;;-1.19;52.14
62680;BME280;68213;40.528;44.712;2023-03-01T00:04:43;80865.09;;;-1.19;51.46
62680;BME280;68213;40.528;44.712;2023-03-01T00:05:47;80853.00;;;-1.24;51.81
62680;BME280;68213;40.528;44.712;2023-03-01T00:06:47;80862.03;;;-1.17;52.02
62680;BME280;68213;40.528;44.712;2023-03-01T00:07:52;80837.06;;;-1.36;52.19
62680;BME280;68213;40.528;44.712;2023-03-01T00:08:53;80841.25;;;-1.33;52.10
62680;BME280;68213;40.528;44.712;2023-03-01T00:09:54;80871.34;;;-1.14;51.81
62680;BME280;68213;40.528;44.712;2023-03-01T00:12:06;80877.19;;;-1.14;52.04
62680;BME280;68213;40.528;44.712;2023-03-01T00:13:06;80841.28;;;-1.60;51.93
62680;BME280;68213;40.528;44.712;2023-03-01T00:14:07;80869.81;;;-1.31;52.26
62680;BME280;68213;40.528;44.712;2023-03-01T00:15:08;80870.31;;;-1.46;52.09
62680;BME280;68213;40.528;44.712;2023-03-01T00:16:22;80870.22;;;-1.40;52.87
62680;BME280;68213;40.528;44.712;2023-03-01T00:17:23;80836.56;;;-1.82;52.31
62680;BME280;68213;40.528;44.712;2023-03-01T00:18:24;80868.69;;;-1.70;52.89
62680;BME280;68213;40.528;44.712;2023-03-01T00:19:25;80869.06;;;-1.66;53.16
62680;BME280;68213;40.528;44.712;2023-03-01T00:20:25;80868.47;;;-1.58;53.16
62680;BME280;68213;40.528;44.712;2023-03-01T00:21:27;80875.59;;;-1.51;53.29
62680;BME280;68213;40.528;44.712;2023-03-01T00:22:27;80868.44;;;-1.45;52.74
62680;BME280;68213;40.528;44.712;2023-03-01T00:23:28;80873.50;;;-1.39;52.88
62680;BME280;68213;40.528;44.712;2023-03-01T00:24:29;80878.34;;;-1.36;52.47
62680;BME280;68213;40.528;44.712;2023-03-01T00:25:30;80862.88;;;-1.36;52.61
62680;BME280;68213;40.528;44.712;2023-03-01T00:26:30;80865.44;;;-1.36;51.89
62680;BME280;68213;40.528;44.712;2023-03-01T00:27:31;80864.25;;;-1.35;51.66
62680;BME280;68213;40.528;44.712;2023-03-01T00:28:32;80867.66;;;-1.40;51.62
62680;BME280;68213;40.528;44.712;2023-03-01T00:29:32;80861.41;;;-1.45;51.78
62680;BME280;68213;40.528;44.712;2023-03-01T00:30:33;80867.69;;;-1.53;51.93
62680;BME280;68213;40.528;44.712;2023-03-01T00:31:34;80868.22;;;-1.82;52.50
62680;BME280;68213;40.528;44.712;2023-03-01T00:32:35;80867.81;;;-1.86;52.77
62680;BME280;68213;40.528;44.712;2023-03-01T00:33:36;80862.56;;;-1.94;53.05
62680;BME280;68213;40.528;44.712;2023-03-01T00:34:37;80865.66;;;-1.95;53.34
62680;BME280;68213;40.528;44.712;2023-03-01T00:35:37;80865.94;;;-1.99;53.54
62680;BME280;68213;40.528;44.712;2023-03-01T00:36:38;80862.78;;;-2.05;53.55
62680;BME280;68213;40.528;44.712;2023-03-01T00:37:39;80867.53;;;-2.09;53.47
62680;BME280;68213;40.528;44.712;2023-03-01T00:38:45;80858.78;;;-2.19;54.50
62680;BME280;68213;40.528;44.712;2023-03-01T00:39:46;80872.69;;;-2.09;54.23
62680;BME280;68213;40.528;44.712;2023-03-01T00:40:46;80870.91;;;-2.14;54.10
62680;BME280;68213;40.528;44.712;2023-03-01T00:41:47;80864.34;;;-2.15;54.74
62680;BME280;68213;40.528;44.712;2023-03-01T00:42:48;80870.78;;;-2.22;54.30
62680;BME280;68213;40.528;44.712;2023-03-01T00:43:49;80862.97;;;-2.16;54.57
62680;BME280;68213;40.528;44.712;2023-03-01T00:44:50;80860.09;;;-2.13;54.44
62680;BME280;68213;40.528;44.712;2023-03-01T00:45:51;80797.81;;;-2.51;54.09
62680;BME280;68213;40.528;44.712;2023-03-01T00:46:51;80866.84;;;-1.96;54.17
62680;BME280;68213;40.528;44.712;2023-03-01T00:47:52;80866.53;;;-1.93;54.56
62680;BME280;68213;40.528;44.712;2023-03-01T00:48:53;80851.97;;;-1.90;54.31
62680;BME280;68213;40.528;44.712;2023-03-01T00:49:54;80855.03;;;-1.78;53.63
62680;BME280;68213;40.528;44.712;2023-03-01T00:50:54;80862.16;;;-1.71;53.41
62680;BME280;68213;40.528;44.712;2023-03-01T00:51:55;80853.53;;;-1.73;53.59
62680;BME280;68213;40.528;44.712;2023-03-01T00:52:56;80861.25;;;-1.60;53.46
62680;BME280;68213;40.528;44.712;2023-03-01T00:54:00;80861.91;;;-1.60;53.34
62680;BME280;68213;40.528;44.712;2023-03-01T00:55:01;80831.78;;;-1.65;52.73
62680;BME280;68213;40.528;44.712;2023-03-01T00:56:05;80856.13;;;-1.39;52.54
62680;BME280;68213;40.528;44.712;2023-03-01T00:57:06;80852.53;;;-1.36;52.76
62680;BME280;68213;40.528;44.712;2023-03-01T00:58:06;80849.50;;;-1.34;52.81
62680;BME280;68213;40.528;44.712;2023-03-01T00:59:07;80856.31;;;-1.37;52.67
62680;BME280;68213;40.528;44.712;2023-03-01T01:00:08;80854.25;;;-1.38;52.74
62680;BME280;68213;40.528;44.712;2023-03-01T01:01:16;80849.78;;;-1.38;52.78
62680;BME280;68213;40.528;44.712;2023-03-01T01:02:18;80849.28;;;-1.36;52.50
62680;BME280;68213;40.528;44.712;2023-03-01T01:03:20;80849.41;;;-1.42;52.42
62680;BME280;68213;40.528;44.712;2023-03-01T01:04:20;80851.16;;;-1.37;52.46
62680;BME280;68213;40.528;44.712;2023-03-01T01:05:21;80842.47;;;-1.47;52.50
62680;BME280;68213;40.528;44.712;2023-03-01T01:06:27;80851.78;;;-1.44;52.97
62680;BME280;68213;40.528;44.712;2023-03-01T01:07:28;80760.31;;;-2.12;52.74
62680;BME280;68213;40.528;44.712;2023-03-01T01:08:29;80855.56;;;-1.58;53.25
62680;BME280;68213;40.528;44.712;2023-03-01T01:09:30;80819.94;;;-1.95;53.15
62680;BME280;68213;40.528;44.712;2023-03-01T01:10:33;80842.34;;;-1.76;53.65
62680;BME280;68213;40.528;44.712;2023-03-01T01:11:35;80851.16;;;-1.71;53.76
62680;BME280;68213;40.528;44.712;2023-03-01T01:12:36;80840.66;;;-1.73;53.52
62680;BME280;68213;40.528;44.712;2023-03-01T01:13:38;80845.50;;;-1.70;53.36
62680;BME280;68213;40.528;44.712;2023-03-01T01:14:39;80844.31;;;-1.69;53.45
62680;BME280;68213;40.528;44.712;2023-03-01T01:15:40;80846.88;;;-1.69;53.33
62680;BME280;68213;40.528;44.712;2023-03-01T01:16:41;80836.06;;;-1.67;53.68
62680;BME280;68213;40.528;44.712;2023-03-01T01:17:42;80839.16;;;-1.69;53.43
62680;BME280;68213;40.528;44.712;2023-03-01T01:18:43;80835.38;;;-1.68;53.72
62680;BME280;68213;40.528;44.712;2023-03-01T01:19:44;80831.91;;;-1.70;53.47
62680;BME280;68213;40.528;44.712;2023-03-01T01:20:45;80834.97;;;-1.72;53.38
62680;BME280;68213;40.528;44.712;2023-03-01T01:21:46;80835.28;;;-1.76;53.40
62680;BME280;68213;40.528;44.712;2023-03-01T01:22:48;80836.88;;;-1.72;53.79
62680;BME280;68213;40.528;44.712;2023-03-01T01:23:49;80815.03;;;-2.06;54.22
62680;BME280;68213;40.528;44.712;2023-03-01T01:24:50;80839.00;;;-1.98;54.55
62680;BME280;68213;40.528;44.712;2023-03-01T01:25:51;80838.69;;;-2.08;54.90
62680;BME280;68213;40.528;44.712;2023-03-01T01:26:52;80828.41;;;-2.34;55.44
62680;BME280;68213;40.528;44.712;2023-03-01T01:27:52;80845.94;;;-2.33;56.10
62680;BME280;68213;40.528;44.712;2023-03-01T01:28:53;80847.91;;;-2.39;56.25
62680;BME280;68213;40.528;44.712;2023-03-01T01:29:54;80845.13;;;-2.41;55.93
62680;BME280;68213;40.528;44.712;2023-03-01T01:30:55;80843.34;;;-2.46;56.72
62680;BME280;68213;40.528;44.712;2023-03-01T01:31:55;80847.91;;;-2.66;56.77
62680;BME280;68213;40.528;44.712;2023-03-01T01:32:56;80846.72;;;-2.51;56.19
62680;BME280;68213;40.528;44.712;2023-03-01T01:34:00;80839.97;;;-2.41;56.03
62680;BME280;68213;40.528;44.712;2023-03-01T01:35:01;80841.66;;;-2.57;56.76
62680;BME280;68213;40.528;44.712;2023-03-01T01:36:04;80841.44;;;-2.59;57.09
62680;BME280;68213;40.528;44.712;2023-03-01T01:37:05;80842.75;;;-2.52;57.19
62680;BME280;68213;40.528;44.712;2023-03-01T01:38:08;80845.13;;;-2.41;56.41
62680;BME280;68213;40.528;44.712;2023-03-01T01:39:09;80844.75;;;-2.32;56.10
62680;BME280;68213;40.528;44.712;2023-03-01T01:40:13;80844.84;;;-2.24;56.00
62680;BME280;68213;40.528;44.712;2023-03-01T01:41:14;80842.66;;;-2.20;55.55
62680;BME280;68213;40.528;44.712;2023-03-01T01:42:16;80843.75;;;-2.15;55.56
62680;BME280;68213;40.528;44.712;2023-03-01T01:43:26;80838.59;;;-2.15;55.20
62680;BME280;68213;40.528;44.712;2023-03-01T01:44:28;80843.53;;;-2.04;55.13
62680;BME280;68213;40.528;44.712;2023-03-01T01:45:32;80844.25;;;-2.03;54.66
62680;BME280;68213;40.528;44.712;2023-03-01T01:46:36;80820.00;;;-2.21;54.90
62680;BME280;68213;40.528;44.712;2023-03-01T01:47:38;80847.72;;;-2.01;54.19
62680;BME280;68213;40.528;44.712;2023-03-01T01:48:45;80845.72;;;-2.08;54.62
62680;BME280;68213;40.528;44.712;2023-03-01T01:49:56;80831.28;;;-2.25;54.45
62680;BME280;68213;40.528;44.712;2023-03-01T01:51:00;80847.81;;;-2.07;54.76
62680;BME280;68213;40.528;44.712;2023-03-01T01:52:12;80815.44;;;-2.42;54.89
62680;BME280;68213;40.528;44.712;2023-03-01T01:53:19;80841.47;;;-2.32;55.43
62680;BME280;68213;40.528;44.712;2023-03-01T01:54:44;80841.56;;;-2.38;55.84
62680;BME280;68213;40.528;44.712;2023-03-01T01:55:49;80841.97;;;-2.34;55.37
62680;BME280;68213;40.528;44.712;2023-03-01T01:56:55;80829.19;;;-2.40;54.96
62680;BME280;68213;40.528;44.712;2023-03-01T01:58:02;80811.16;;;-2.53;55.45
62680;BME280;68213;40.528;44.712;2023-03-01T01:59:05;80815.53;;;-2.48;55.50
62680;BME280;68213;40.528;44.712;2023-03-01T02:00:12;80842.16;;;-2.32;55.58
62680;BME280;68213;40.528;44.712;2023-03-01T02:01:13;80846.34;;;-2.29;55.22
62680;BME280;68213;40.528;44.712;2023-03-01T02:02:14;80840.38;;;-2.24;55.10
62680;BME280;68213;40.528;44.712;2023-03-01T02:03:23;80825.03;;;-2.29;55.15
62680;BME280;68213;40.528;44.712;2023-03-01T02:04:25;80842.75;;;-2.39;55.29
62680;BME280;68213;40.528;44.712;2023-03-01T02:05:33;80840.59;;;-2.35;55.42
62680;BME280;68213;40.528;44.712;2023-03-01T02:06:44;80841.06;;;-2.36;55.63
62680;BME280;68213;40.528;44.712;2023-03-01T02:07:47;80835.84;;;-2.44;56.08
62680;BME280;68213;40.528;44.712;2023-03-01T02:08:49;80835.63;;;-2.60;57.10
62680;BME280;68213;40.528;44.712;2023-03-01T02:09:53;80837.50;;;-2.60;56.74
62680;BME280;68213;40.528;44.712;2023-03-01T02:10:54;80812.16;;;-2.69;56.37
62680;BME280;68213;40.528;44.712;2023-03-01T02:11:57;80838.91;;;-2.46;56.30
62680;BME280;68213;40.528;44.712;2023-03-01T02:12:57;80830.38;;;-2.41;55.82
62680;BME280;68213;40.528;44.712;2023-03-01T02:14:18;80827.91;;;-2.33;55.83
62680;BME280;68213;40.528;44.712;2023-03-01T02:15:19;80833.47;;;-2.29;55.84
62680;BME280;68213;40.528;44.712;2023-03-01T02:16:20;80807.09;;;-2.62;56.16
62680;BME280;68213;40.528;44.712;2023-03-01T02:17:21;80833.84;;;-2.51;56.26
62680;BME280;68213;40.528;44.712;2023-03-01T02:18:23;80832.97;;;-2.54;56.31
62680;BME280;68213;40.528;44.712;2023-03-01T02:23:18;80836.72;;;-2.68;56.63
62680;BME280;68213;40.528;44.712;2023-03-01T02:24:45;80836.59;;;-2.63;56.39
62680;BME280;68213;40.528;44.712;2023-03-01T02:25:55;80832.53;;;-2.58;56.15
62680;BME280;68213;40.528;44.712;2023-03-01T02:27:01;80837.19;;;-2.57;56.22
62680;BME280;68213;40.528;44.712;2023-03-01T02:28:31;80838.78;;;-2.53;56.26
62680;BME280;68213;40.528;44.712;2023-03-01T02:29:33;80837.19;;;-2.57;56.32
62680;BME280;68213;40.528;44.712;2023-03-01T02:30:34;80832.25;;;-2.55;56.08
62680;BME280;68213;40.528;44.712;2023-03-01T02:31:35;80835.72;;;-2.52;55.89
62680;BME280;68213;40.528;44.712;2023-03-01T02:32:42;80803.34;;;-2.74;56.00
62680;BME280;68213;40.528;44.712;2023-03-01T02:33:46;80842.16;;;-2.59;56.36
62680;BME280;68213;40.528;44.712;2023-03-01T02:34:48;80837.78;;;-2.64;56.12
62680;BME280;68213;40.528;44.712;2023-03-01T02:35:49;80829.06;;;-2.74;56.40
62680;BME280;68213;40.528;44.712;2023-03-01T02:37:01;80840.16;;;-2.66;56.73
62680;BME280;68213;40.528;44.712;2023-03-01T02:38:07;80843.94;;;-2.67;56.47
62680;BME280;68213;40.528;44.712;2023-03-01T02:39:12;80846.50;;;-2.67;56.73
62680;BME280;68213;40.528;44.712;2023-03-01T02:40:18;80842.72;;;-2.79;57.10
62680;BME280;68213;40.528;44.712;2023-03-01T02:41:22;80843.91;;;-2.80;57.31
62680;BME280;68213;40.528;44.712;2023-03-01T02:42:31;80835.78;;;-2.84;57.61
62680;BME280;68213;40.528;44.712;2023-03-01T02:43:33;80842.72;;;-2.79;57.32
62680;BME280;68213;40.528;44.712;2023-03-01T02:44:33;80834.72;;;-2.76;56.68
62680;BME280;68213;40.528;44.712;2023-03-01T02:45:34;80844.50;;;-2.74;57.41
62680;BME280;68213;40.528;44.712;2023-03-01T02:46:43;80841.66;;;-2.71;57.10
62680;BME280;68213;40.528;44.712;2023-03-01T02:47:44;80841.06;;;-2.77;57.73
62680;BME280;68213;40.528;44.712;2023-03-01T02:49:16;80833.84;;;-2.65;57.58
62680;BME280;68213;40.528;44.712;2023-03-01T02:51:45;80837.69;;;-2.58;57.91
62680;BME280;68213;40.528;44.712;2023-03-01T02:53:11;80831.66;;;-2.61;58.01
62680;BME280;68213;40.528;44.712;2023-03-01T02:54:27;80830.25;;;-2.75;58.98
62680;BME280;68213;40.528;44.712;2023-03-01T02:55:28;80830.84;;;-2.82;58.66
62680;BME280;68213;40.528;44.712;2023-03-01T02:56:29;80828.47;;;-2.80;59.20
62680;BME280;68213;40.528;44.712;2023-03-01T02:57:32;80822.53;;;-2.75;58.81
62680;BME280;68213;40.528;44.712;2023-03-01T02:58:33;80826.22;;;-2.71;58.90
62680;BME280;68213;40.528;44.712;2023-03-01T02:59:45;80831.66;;;-2.74;58.77
62680;BME280;68213;40.528;44.712;2023-03-01T03:00:46;80818.88;;;-2.66;58.72
62680;BME280;68213;40.528;44.712;2023-03-01T03:01:49;80821.28;;;-2.68;58.41
62680;BME280;68213;40.528;44.712;2023-03-01T03:02:52;80826.72;;;-2.59;58.85
62680;BME280;68213;40.528;44.712;2023-03-01T03:03:54;80823.53;;;-2.65;58.59
62680;BME280;68213;40.528;44.712;2023-03-01T03:04:55;80829.88;;;-2.66;59.69
62680;BME280;68213;40.528;44.712;2023-03-01T03:05:56;80832.75;;;-2.69;59.60
62680;BME280;68213;40.528;44.712;2023-03-01T03:06:56;80833.22;;;-2.84;59.81
62680;BME280;68213;40.528;44.712;2023-03-01T03:07:59;80827.38;;;-2.72;59.56
62680;BME280;68213;40.528;44.712;2023-03-01T03:09:01;80826.13;;;-2.65;59.11
62680;BME280;68213;40.528;44.712;2023-03-01T03:10:04;80827.31;;;-2.66;59.14
62680;BME280;68213;40.528;44.712;2023-03-01T03:11:06;80815.81;;;-2.65;59.75
62680;BME280;68213;40.528;44.712;2023-03-01T03:12:06;80808.78;;;-2.64;59.41
62680;BME280;68213;40.528;44.712;2023-03-01T03:13:10;80807.81;;;-2.61;59.38
62680;BME280;68213;40.528;44.712;2023-03-01T03:14:13;80808.19;;;-2.57;59.63
62680;BME280;68213;40.528;44.712;2023-03-01T03:15:14;80808.50;;;-2.61;58.76
62680;BME280;68213;40.528;44.712;2023-03-01T03:16:17;80822.84;;;-2.65;59.25
62680;BME280;68213;40.528;44.712;2023-03-01T03:17:18;80819.75;;;-2.64;59.61
62680;BME280;68213;40.528;44.712;2023-03-01T03:18:19;80824.63;;;-2.60;59.19
62680;BME280;68213;40.528;44.712;2023-03-01T03:19:19;80815.13;;;-2.65;59.40
62680;BME280;68213;40.528;44.712;2023-03-01T03:20:22;80823.84;;;-2.68;59.73
62680;BME280;68213;40.528;44.712;2023-03-01T03:21:24;80817.69;;;-2.79;60.05
62680;BME280;68213;40.528;44.712;2023-03-01T03:22:24;80817.09;;;-2.85;60.02
62680;BME280;68213;40.528;44.712;2023-03-01T03:23:25;80823.34;;;-2.80;60.27
62680;BME280;68213;40.528;44.712;2023-03-01T03:24:26;80815.63;;;-2.80;60.27
62680;BME280;68213;40.528;44.712;2023-03-01T03:25:28;80817.88;;;-2.77;60.13
62680;BME280;68213;40.528;44.712;2023-03-01T03:26:29;80818.28;;;-2.73;59.76
62680;BME280;68213;40.528;44.712;2023-03-01T03:27:32;80819.38;;;-2.68;59.46
62680;BME280;68213;40.528;44.712;2023-03-01T03:28:34;80820.75;;;-2.67;59.62
62680;BME280;68213;40.528;44.712;2023-03-01T03:29:35;80818.78;;;-2.61;59.88
62680;BME280;68213;40.528;44.712;2023-03-01T03:30:39;80823.84;;;-2.68;59.84
62680;BME280;68213;40.528;44.712;2023-03-01T03:31:40;80830.47;;;-2.73;59.87
62680;BME280;68213;40.528;44.712;2023-03-01T03:32:42;80825.50;;;-2.71;59.51
62680;BME280;68213;40.528;44.712;2023-03-01T03:33:52;80825.63;;;-2.77;59.99
62680;BME280;68213;40.528;44.712;2023-03-01T03:34:53;80824.50;;;-2.81;60.21
62680;BME280;68213;40.528;44.712;2023-03-01T03:35:53;80818.66;;;-2.82;60.08
62680;BME280;68213;40.528;44.712;2023-03-01T03:36:57;80832.53;;;-2.72;59.44
62680;BME280;68213;40.528;44.712;2023-03-01T03:38:03;80822.63;;;-2.67;59.19
62680;BME280;68213;40.528;44.712;2023-03-01T03:39:04;80819.75;;;-2.64;59.33
62680;BME280;68213;40.528;44.712;2023-03-01T03:40:06;80822.97;;;-2.58;58.68
62680;BME280;68213;40.528;44.712;2023-03-01T03:41:16;80825.91;;;-2.53;58.84
62680;BME280;68213;40.528;44.712;2023-03-01T03:42:17;80769.97;;;-2.93;58.86
62680;BME280;68213;40.528;44.712;2023-03-01T03:43:20;80832.84;;;-2.48;59.06
62680;BME280;68213;40.528;44.712;2023-03-01T03:44:21;80823.72;;;-2.49;58.59
62680;BME280;68213;40.528;44.712;2023-03-01T03:45:22;80828.69;;;-2.51;58.78
62680;BME280;68213;40.528;44.712;2023-03-01T03:46:25;80826.31;;;-2.49;58.68
62680;BME280;68213;40.528;44.712;2023-03-01T03:47:26;80821.16;;;-2.49;59.06
62680;BME280;68213;40.528;44.712;2023-03-01T03:48:27;80824.16;;;-2.45;58.66
62680;BME280;68213;40.528;44.712;2023-03-01T03:49:27;80759.38;;;-2.90;58.82
62680;BME280;68213;40.528;44.712;2023-03-01T03:50:28;80820.78;;;-2.40;59.24
62680;BME280;68213;40.528;44.712;2023-03-01T03:51:29;80824.94;;;-2.37;58.67
62680;BME280;68213;40.528;44.712;2023-03-01T03:52:30;80800.97;;;-2.45;58.90
62680;BME280;68213;40.528;44.712;2023-03-01T03:53:31;80816.03;;;-2.36;58.65
62680;BME280;68213;40.528;44.712;2023-03-01T03:54:31;80830.59;;;-2.25;58.27
62680;BME280;68213;40.528;44.712;2023-03-01T03:55:32;80814.63;;;-2.37;58.13
62680;BME280;68213;40.528;44.712;2023-03-01T03:56:34;80826.81;;;-2.24;58.13
62680;BME280;68213;40.528;44.712;2023-03-01T03:57:39;80821.56;;;-2.18;57.37
62680;BME280;68213;40.528;44.712;2023-03-01T03:58:40;80791.56;;;-2.29;56.79
62680;BME280;68213;40.528;44.712;2023-03-01T03:59:41;80817.09;;;-2.04;56.96
62680;BME280;68213;40.528;44.712;2023-03-01T04:00:43;80820.97;;;-1.98;56.72
62680;BME280;68213;40.528;44.712;2023-03-01T04:01:44;80818.75;;;-1.94;56.47
62680;BME280;68213;40.528;44.712;2023-03-01T04:03:52;80822.31;;;-1.83;56.01
62680;BME280;68213;40.528;44.712;2023-03-01T04:04:54;80820.53;;;-1.88;56.04
62680;BME280;68213;40.528;44.712;2023-03-01T04:05:57;80810.72;;;-1.90;56.36
62680;BME280;68213;40.528;44.712;2023-03-01T04:06:58;80819.44;;;-1.80;56.20
62680;BME280;68213;40.528;44.712;2023-03-01T04:07:59;80803.09;;;-1.96;56.31
62680;BME280;68213;40.528;44.712;2023-03-01T04:09:03;80823.72;;;-1.96;56.84
62680;BME280;68213;40.528;44.712;2023-03-01T04:10:06;80823.41;;;-1.92;57.35
62680;BME280;68213;40.528;44.712;2023-03-01T04:11:07;80820.16;;;-1.93;57.20
62680;BME280;68213;40.528;44.712;2023-03-01T04:12:26;80819.84;;;-1.89;56.88
62680;BME280;68213;40.528;44.712;2023-03-01T04:13:26;80821.25;;;-1.88;57.32
62680;BME280;68213;40.528;44.712;2023-03-01T04:14:27;80825.78;;;-1.81;57.14
62680;BME280;68213;40.528;44.712;2023-03-01T04:15:28;80818.75;;;-1.80;56.57
62680;BME280;68213;40.528;44.712;2023-03-01T04:16:29;80828.84;;;-1.69;56.70
62680;BME280;68213;40.528;44.712;2023-03-01T04:17:32;80835.22;;;-1.83;57.23
62680;BME280;68213;40.528;44.712;2023-03-01T04:18:32;80831.13;;;-1.79;57.24
62680;BME280;68213;40.528;44.712;2023-03-01T04:19:33;80826.06;;;-1.71;56.52
62680;BME280;68213;40.528;44.712;2023-03-01T04:20:36;80831.59;;;-1.67;57.11
62680;BME280;68213;40.528;44.712;2023-03-01T04:21:39;80829.13;;;-1.59;56.79
62680;BME280;68213;40.528;44.712;2023-03-01T04:22:40;80802.50;;;-1.75;56.75
62680;BME280;68213;40.528;44.712;2023-03-01T04:23:41;80826.25;;;-1.69;56.51
62680;BME280;68213;40.528;44.712;2023-03-01T04:24:42;80819.50;;;-1.72;57.28
62680;BME280;68213;40.528;44.712;2023-03-01T04:25:52;80832.25;;;-2.01;58.87
62680;BME280;68213;40.528;44.712;2023-03-01T04:26:56;80831.94;;;-1.97;58.53
62680;BME280;68213;40.528;44.712;2023-03-01T04:27:56;80823.09;;;-1.88;58.44
62680;BME280;68213;40.528;44.712;2023-03-01T04:28:57;80831.13;;;-1.79;58.02
62680;BME280;68213;40.528;44.712;2023-03-01T04:29:58;80829.16;;;-1.72;57.34
62680;BME280;68213;40.528;44.712;2023-03-01T04:31:02;80827.81;;;-1.66;57.48
62680;BME280;68213;40.528;44.712;2023-03-01T04:32:12;80834.38;;;-1.65;57.29
62680;BME280;68213;40.528;44.712;2023-03-01T04:33:19;80827.34;;;-1.64;57.42
62680;BME280;68213;40.528;44.712;2023-03-01T04:34:20;80829.53;;;-1.68;57.42
62680;BME280;68213;40.528;44.712;2023-03-01T04:35:21;80817.03;;;-1.78;57.92
62680;BME280;68213;40.528;44.712;2023-03-01T04:36:24;80824.88;;;-1.70;58.17
62680;BME280;68213;40.528;44.712;2023-03-01T04:37:26;80835.75;;;-1.64;57.81
62680;BME280;68213;40.528;44.712;2023-03-01T04:38:27;80833.75;;;-1.57;57.36
62680;BME280;68213;40.528;44.712;2023-03-01T04:39:27;80831.75;;;-1.51;57.04
62680;BME280;68213;40.528;44.712;2023-03-01T04:40:28;80822.31;;;-1.49;56.85
62680;BME280;68213;40.528;44.712;2023-03-01T04:41:29;80833.50;;;-1.33;56.76
62680;BME280;68213;40.528;44.712;2023-03-01T04:42:30;80830.31;;;-1.25;56.45
62680;BME280;68213;40.528;44.712;2023-03-01T04:43:30;80831.00;;;-1.25;56.50
62680;BME280;68213;40.528;44.712;2023-03-01T04:44:31;80837.72;;;-1.22;56.28
62680;BME280;68213;40.528;44.712;2023-03-01T04:45:32;80819.78;;;-1.28;56.26
62680;BME280;68213;40.528;44.712;2023-03-01T04:46:36;80845.16;;;-1.18;56.54
62680;BME280;68213;40.528;44.712;2023-03-01T04:47:37;80829.38;;;-1.15;55.99
62680;BME280;68213;40.528;44.712;2023-03-01T04:48:41;80835.59;;;-1.10;55.97
62680;BME280;68213;40.528;44.712;2023-03-01T04:49:42;80840.78;;;-1.10;56.03
62680;BME280;68213;40.528;44.712;2023-03-01T04:50:43;80836.69;;;-1.05;56.32
62680;BME280;68213;40.528;44.712;2023-03-01T04:51:43;80841.03;;;-1.00;55.79
62680;BME280;68213;40.528;44.712;2023-03-01T04:52:44;80843.28;;;-0.97;55.76
62680;BME280;68213;40.528;44.712;2023-03-01T04:53:45;80838.91;;;-0.88;55.96
62680;BME280;68213;40.528;44.712;2023-03-01T04:54:45;80833.03;;;-0.89;56.07
62680;BME280;68213;40.528;44.712;2023-03-01T04:55:48;80839.78;;;-0.86;55.76
62680;BME280;68213;40.528;44.712;2023-03-01T04:56:49;80839.09;;;-0.86;55.28
62680;BME280;68213;40.528;44.712;2023-03-01T04:57:49;80841.53;;;-0.81;55.31
62680;BME280;68213;40.528;44.712;2023-03-01T04:58:53;80838.81;;;-0.75;55.24
62680;BME280;68213;40.528;44.712;2023-03-01T04:59:53;80840.97;;;-0.66;54.95
62680;BME280;68213;40.528;44.712;2023-03-01T05:00:54;80838.94;;;-0.59;54.98
62680;BME280;68213;40.528;44.712;2023-03-01T05:01:56;80827.66;;;-0.70;54.67
62680;BME280;68213;40.528;44.712;2023-03-01T05:02:59;80846.41;;;-0.48;54.16
62680;BME280;68213;40.528;44.712;2023-03-01T05:04:00;80837.34;;;-0.41;53.84
62680;BME280;68213;40.528;44.712;2023-03-01T05:05:03;80844.66;;;-0.32;53.44
62680;BME280;68213;40.528;44.712;2023-03-01T05:06:06;80849.50;;;-0.28;54.37
62680;BME280;68213;40.528;44.712;2023-03-01T05:07:06;80838.28;;;-0.31;55.18
62680;BME280;68213;40.528;44.712;2023-03-01T05:08:08;80838.19;;;-0.18;55.00
62680;BME280;68213;40.528;44.712;2023-03-01T05:09:08;80838.13;;;-0.25;54.59
62680;BME280;68213;40.528;44.712;2023-03-01T05:10:12;80842.66;;;-0.18;53.69
62680;BME280;68213;40.528;44.712;2023-03-01T05:11:12;80843.25;;;-0.12;53.01
62680;BME280;68213;40.528;44.712;2023-03-01T05:12:14;80840.69;;;-0.04;53.21
62680;BME280;68213;40.528;44.712;2023-03-01T05:13:15;80838.16;;;0.04;53.33
62680;BME280;68213;40.528;44.712;2023-03-01T05:14:23;80846.31;;;0.15;52.57
62680;BME280;68213;40.528;44.712;2023-03-01T05:15:25;80843.03;;;0.15;52.94
62680;BME280;68213;40.528;44.712;2023-03-01T05:16:29;80841.69;;;0.22;52.54
62680;BME280;68213;40.528;44.712;2023-03-01T05:17:30;80816.78;;;0.03;52.83
62680;BME280;68213;40.528;44.712;2023-03-01T05:18:33;80843.78;;;0.23;53.72
62680;BME280;68213;40.528;44.712;2023-03-01T05:19:34;80834.09;;;0.16;54.47
62680;BME280;68213;40.528;44.712;2023-03-01T05:20:34;80835.16;;;0.28;54.16
62680;BME280;68213;40.528;44.712;2023-03-01T05:21:39;80838.19;;;0.48;54.56
62680;BME280;68213;40.528;44.712;2023-03-01T05:23:00;80839.41;;;0.47;54.20
62680;BME280;68213;40.528;44.712;2023-03-01T05:24:05;80838.03;;;0.54;54.26
62680;BME280;68213;40.528;44.712;2023-03-01T05:25:13;80807.63;;;0.39;54.45
62680;BME280;68213;40.528;44.712;2023-03-01T05:26:17;80843.78;;;0.68;53.97
62680;BME280;68213;40.528;44.712;2023-03-01T05:27:18;80835.97;;;0.60;54.57
62680;BME280;68213;40.528;44.712;2023-03-01T05:28:22;80844.44;;;0.60;54.61
62680;BME280;68213;40.528;44.712;2023-03-01T05:29:25;80838.06;;;0.61;54.58
62680;BME280;68213;40.528;44.712;2023-03-01T05:30:25;80837.81;;;0.44;55.15
62680;BME280;68213;40.528;44.712;2023-03-01T05:31:27;80834.09;;;0.60;55.08
62680;BME280;68213;40.528;44.712;2023-03-01T05:32:28;80836.34;;;0.64;54.63
62680;BME280;68213;40.528;44.712;2023-03-01T05:33:32;80830.34;;;0.69;54.34
62680;BME280;68213;40.528;44.712;2023-03-01T05:34:34;80834.88;;;0.84;53.71
62680;BME280;68213;40.528;44.712;2023-03-01T05:35:36;80833.34;;;0.97;53.28
62680;BME280;68213;40.528;44.712;2023-03-01T05:36:38;80834.03;;;0.89;54.28